createdAt,value
2022-10-10T00:01:14.616Z,9.86
2022-10-10T00:03:42.022Z,9.74
2022-10-10T00:06:09.170Z,9.69
2022-10-10T00:08:36.178Z,9.66
2022-10-10T00:11:04.251Z,9.75
2022-10-10T00:13:31.330Z,9.82
2022-10-10T00:15:58.437Z,9.90
2022-10-10T00:18:25.849Z,9.86
2022-10-10T00:20:53.310Z,9.88
2022-10-10T00:23:20.917Z,9.91
2022-10-10T00:25:48.309Z,9.95
2022-10-10T00:28:15.601Z,9.88
2022-10-10T00:30:42.509Z,9.92
2022-10-10T00:33:09.569Z,9.89
2022-10-10T00:35:36.451Z,9.79
2022-10-10T00:38:03.686Z,9.68
2022-10-10T00:40:30.649Z,9.67
2022-10-10T00:42:57.473Z,9.66
2022-10-10T00:45:36.192Z,9.73
2022-10-10T00:48:06.398Z,9.76
2022-10-10T00:50:36.778Z,9.78
2022-10-10T00:53:06.269Z,9.78
2022-10-10T00:55:33.471Z,9.88
2022-10-10T00:58:00.189Z,9.88
2022-10-10T01:00:26.891Z,9.72
2022-10-10T01:02:53.947Z,9.73
2022-10-10T01:05:21.097Z,9.73
2022-10-10T01:07:47.917Z,9.77
2022-10-10T01:10:16.369Z,9.80
2022-10-10T01:12:55.959Z,9.83
2022-10-10T01:15:31.537Z,9.75
2022-10-10T01:18:29.597Z,9.85
2022-10-10T01:21:09.396Z,9.83
2022-10-10T01:24:09.989Z,9.81
2022-10-10T01:26:58.654Z,9.81
2022-10-10T01:29:33.754Z,9.57
2022-10-10T01:32:15.123Z,9.61
2022-10-10T01:34:49.170Z,9.46
2022-10-10T01:37:34.032Z,9.54
2022-10-10T01:40:14.747Z,9.64
2022-10-10T01:42:48.138Z,9.60
2022-10-10T01:45:14.953Z,9.66
2022-10-10T01:47:41.950Z,9.71
2022-10-10T01:50:13.490Z,9.74
2022-10-10T01:52:50.268Z,9.83
2022-10-10T01:55:33.177Z,9.68
2022-10-10T01:58:29.769Z,9.67
2022-10-10T02:00:59.761Z,9.63
2022-10-10T02:03:40.168Z,9.73
2022-10-10T02:06:13.234Z,9.85
2022-10-10T02:08:49.532Z,9.90
2022-10-10T02:11:16.344Z,9.73
2022-10-10T02:13:46.669Z,9.70
2022-10-10T02:16:19.624Z,9.65
2022-10-10T02:18:47.585Z,9.37
2022-10-10T02:21:15.210Z,9.40
2022-10-10T02:23:43.530Z,9.37
2022-10-10T02:26:13.707Z,9.36
2022-10-10T02:28:42.476Z,9.30
2022-10-10T02:31:16.812Z,9.43
2022-10-10T02:33:54.258Z,9.20
2022-10-10T02:36:22.070Z,9.27
2022-10-10T02:38:49.057Z,9.24
2022-10-10T02:41:18.361Z,9.27
2022-10-10T02:43:45.690Z,9.20
2022-10-10T02:46:14.170Z,9.18
2022-10-10T02:48:41.652Z,9.06
2022-10-10T02:51:09.428Z,8.99
2022-10-10T02:53:37.557Z,8.95
2022-10-10T02:56:05.116Z,8.99
2022-10-10T02:58:31.976Z,9.04
2022-10-10T03:00:58.969Z,8.97
2022-10-10T03:03:25.950Z,9.00
2022-10-10T03:05:53.031Z,9.04
2022-10-10T03:08:20.229Z,8.92
2022-10-10T03:10:58.048Z,9.01
2022-10-10T03:13:25.133Z,9.03
2022-10-10T03:15:51.929Z,9.02
2022-10-10T03:18:18.748Z,8.96
2022-10-10T03:20:46.703Z,8.91
2022-10-10T03:23:14.090Z,8.88
2022-10-10T03:25:42.349Z,8.92
2022-10-10T03:28:10.103Z,8.89
2022-10-10T03:30:38.029Z,8.78
2022-10-10T03:33:05.050Z,8.73
2022-10-10T03:35:31.909Z,8.76
2022-10-10T03:37:58.910Z,8.64
2022-10-10T03:40:26.588Z,8.54
2022-10-10T03:42:53.684Z,8.58
2022-10-10T03:45:20.681Z,8.54
2022-10-10T03:47:47.409Z,8.53
2022-10-10T03:50:14.404Z,8.47
2022-10-10T03:52:41.217Z,8.48
2022-10-10T03:55:08.145Z,8.34
2022-10-10T03:57:35.190Z,8.43
2022-10-10T04:00:01.931Z,8.53
2022-10-10T04:02:28.730Z,8.54
2022-10-10T04:04:55.970Z,8.51
2022-10-10T04:07:22.669Z,8.49
2022-10-10T04:09:49.729Z,8.54
2022-10-10T04:12:16.449Z,8.36
2022-10-10T04:14:43.209Z,8.36
2022-10-10T04:17:10.289Z,8.26
2022-10-10T04:19:36.846Z,8.24
2022-10-10T04:22:05.978Z,8.25
2022-10-10T04:24:35.809Z,8.19
2022-10-10T04:27:02.377Z,8.09
2022-10-10T04:29:29.025Z,8.10
2022-10-10T04:31:55.675Z,8.13
2022-10-10T04:34:22.255Z,8.17
2022-10-10T04:36:48.815Z,8.15
2022-10-10T04:39:15.427Z,8.13
2022-10-10T04:41:42.033Z,8.14
2022-10-10T04:44:08.828Z,8.17
2022-10-10T04:46:35.476Z,8.00
2022-10-10T04:49:02.050Z,7.85
2022-10-10T04:51:28.633Z,7.71
2022-10-10T04:53:55.243Z,7.74
2022-10-10T04:56:21.888Z,7.88
2022-10-10T04:58:48.518Z,7.82
2022-10-10T05:01:15.278Z,7.82
2022-10-10T05:03:41.901Z,7.83
2022-10-10T05:06:08.667Z,7.83
2022-10-10T05:08:35.316Z,7.87
2022-10-10T05:11:02.218Z,7.89
2022-10-10T05:13:28.889Z,7.70
2022-10-10T05:15:55.626Z,7.75
2022-10-10T05:18:22.230Z,7.73
2022-10-10T05:20:49.153Z,7.51
2022-10-10T05:23:16.558Z,7.56
2022-10-10T05:25:50.236Z,7.62
2022-10-10T05:28:17.434Z,7.66
2022-10-10T05:30:44.407Z,7.74
2022-10-10T05:33:11.066Z,7.79
2022-10-10T05:35:37.738Z,7.69
2022-10-10T05:38:05.313Z,7.78
2022-10-10T05:40:31.989Z,7.79
2022-10-10T05:42:58.647Z,7.71
2022-10-10T05:45:25.396Z,7.55
2022-10-10T05:47:52.127Z,7.42
2022-10-10T05:50:39.194Z,7.45
2022-10-10T05:53:06.958Z,7.77
2022-10-10T05:55:34.157Z,7.94
2022-10-10T05:58:01.059Z,8.09
2022-10-10T06:00:27.847Z,8.06
2022-10-10T06:02:55.057Z,8.13
2022-10-10T06:05:22.097Z,8.03
2022-10-10T06:08:09.251Z,8.06
2022-10-10T06:10:36.958Z,8.23
2022-10-10T06:13:03.931Z,8.47
2022-10-10T06:15:30.911Z,8.37
2022-10-10T06:17:57.676Z,8.51
2022-10-10T06:20:24.325Z,8.47
2022-10-10T06:22:51.338Z,8.52
2022-10-10T06:25:38.302Z,8.33
2022-10-10T06:28:05.973Z,8.50
2022-10-10T06:30:35.282Z,8.68
2022-10-10T06:33:02.234Z,8.67
2022-10-10T06:35:29.865Z,9.06
2022-10-10T06:37:56.503Z,9.26
2022-10-10T06:40:23.195Z,9.48
2022-10-10T06:42:50.159Z,9.33
2022-10-10T06:45:17.103Z,9.57
2022-10-10T06:47:43.756Z,9.82
2022-10-10T06:50:11.413Z,10.06
2022-10-10T06:52:38.191Z,10.06
2022-10-10T06:55:05.225Z,10.04
2022-10-10T06:57:32.026Z,10.01
2022-10-10T06:59:58.784Z,9.83
2022-10-10T07:02:25.588Z,10.03
2022-10-10T07:04:52.306Z,10.17
2022-10-10T07:07:19.107Z,10.51
2022-10-10T07:09:45.850Z,10.70
2022-10-10T07:12:12.669Z,10.91
2022-10-10T07:14:39.394Z,10.95
2022-10-10T07:17:06.074Z,11.22
2022-10-10T07:19:33.662Z,11.43
2022-10-10T07:22:00.621Z,11.62
2022-10-10T07:24:27.667Z,11.74
2022-10-10T07:27:03.408Z,12.24
2022-10-10T07:29:30.866Z,12.08
2022-10-10T07:31:57.891Z,11.89
2022-10-10T07:34:24.903Z,12.57
2022-10-10T07:36:51.667Z,12.75
2022-10-10T07:39:22.151Z,12.72
2022-10-10T07:41:50.103Z,12.90
2022-10-10T07:44:17.043Z,12.99
2022-10-10T07:46:44.195Z,13.26
2022-10-10T07:49:11.554Z,14.08
2022-10-10T07:51:39.274Z,14.45
2022-10-10T07:54:06.578Z,15.00
2022-10-10T07:56:33.990Z,14.84
2022-10-10T07:59:01.106Z,14.61
2022-10-10T08:01:28.052Z,14.41
2022-10-10T08:03:56.518Z,14.34
2022-10-10T08:06:23.318Z,14.20
2022-10-10T08:08:51.968Z,14.33
2022-10-10T08:11:20.911Z,14.40
2022-10-10T08:13:47.618Z,14.53
2022-10-10T08:16:14.615Z,15.11
2022-10-10T08:18:41.461Z,15.08
2022-10-10T08:21:11.320Z,15.29
2022-10-10T08:23:38.107Z,15.14
2022-10-10T08:26:10.085Z,15.81
2022-10-10T08:28:37.452Z,16.20
2022-10-10T08:31:14.052Z,16.52
2022-10-10T08:33:41.900Z,16.49
2022-10-10T08:36:15.493Z,16.60
2022-10-10T08:38:42.662Z,16.73
2022-10-10T08:41:48.356Z,16.71
2022-10-10T08:44:24.700Z,17.09
2022-10-10T08:46:58.575Z,16.78
2022-10-10T08:49:46.898Z,17.65
2022-10-10T08:52:25.509Z,18.10
2022-10-10T08:54:58.146Z,18.81
2022-10-10T08:57:31.195Z,19.03
2022-10-10T09:00:06.706Z,18.63
2022-10-10T09:02:55.411Z,19.23
2022-10-10T09:05:41.769Z,19.22
2022-10-10T09:08:24.464Z,20.00
2022-10-10T09:11:16.133Z,20.08
2022-10-10T09:13:59.311Z,19.21
2022-10-10T09:16:47.405Z,19.29
2022-10-10T09:19:35.926Z,19.60
2022-10-10T09:22:06.986Z,19.69
2022-10-10T09:24:35.866Z,19.61
2022-10-10T09:27:06.563Z,18.95
2022-10-10T09:29:39.430Z,20.28
2022-10-10T09:32:23.925Z,20.59
2022-10-10T09:35:21.380Z,20.22
2022-10-10T09:37:51.227Z,20.18
2022-10-10T09:40:37.170Z,20.81
2022-10-10T09:43:17.478Z,20.45
2022-10-10T09:46:02.525Z,19.58
2022-10-10T09:48:33.024Z,19.27
2022-10-10T09:51:01.490Z,19.77
2022-10-10T09:53:28.736Z,19.58
2022-10-10T09:55:55.804Z,19.46
2022-10-10T09:58:35.952Z,18.89
2022-10-10T10:01:24.380Z,19.71
2022-10-10T10:04:29.228Z,19.35
2022-10-10T10:07:31.291Z,19.34
2022-10-10T10:10:12.141Z,19.68
2022-10-10T10:12:42.975Z,19.54
2022-10-10T10:15:22.632Z,19.68
2022-10-10T10:18:17.144Z,20.30
2022-10-10T10:20:49.802Z,20.20
2022-10-10T10:23:38.263Z,20.00
2022-10-10T10:26:16.941Z,19.97
2022-10-10T10:28:45.105Z,19.75
2022-10-10T10:31:31.229Z,19.01
2022-10-10T10:34:21.446Z,18.68
2022-10-10T10:37:15.895Z,18.78
2022-10-10T10:39:45.679Z,19.18
2022-10-10T10:42:24.404Z,19.10
2022-10-10T10:45:13.037Z,18.88
2022-10-10T10:48:18.333Z,18.66
2022-10-10T10:50:53.523Z,19.09
2022-10-10T10:53:32.317Z,19.62
2022-10-10T10:56:17.885Z,19.94
2022-10-10T10:59:31.879Z,20.70
2022-10-10T11:02:07.806Z,20.70
2022-10-10T11:05:18.901Z,20.68
2022-10-10T11:08:29.017Z,20.44
2022-10-10T11:11:20.615Z,20.38
2022-10-10T11:13:51.145Z,20.22
2022-10-10T11:16:46.961Z,19.86
2022-10-10T11:19:14.626Z,20.14
2022-10-10T11:21:46.863Z,20.23
2022-10-10T11:24:22.675Z,20.56
2022-10-10T11:26:54.486Z,20.66
2022-10-10T11:29:24.378Z,20.73
2022-10-10T11:34:55.298Z,20.66
2022-10-10T11:37:26.204Z,21.43
2022-10-10T11:39:56.071Z,21.25
2022-10-10T11:42:46.354Z,21.47
2022-10-10T11:45:18.426Z,21.42
2022-10-10T11:47:56.862Z,21.30
2022-10-10T11:50:29.253Z,21.24
2022-10-10T11:53:05.834Z,21.59
2022-10-10T11:55:38.788Z,21.30
2022-10-10T11:58:05.505Z,20.68
2022-10-10T12:00:46.305Z,20.62
2022-10-10T12:03:13.646Z,20.97
2022-10-10T12:05:43.255Z,21.03
2022-10-10T12:08:19.563Z,21.04
2022-10-10T12:10:58.194Z,20.84
2022-10-10T12:13:37.245Z,20.82
2022-10-10T12:16:28.215Z,21.31
2022-10-10T12:19:02.737Z,21.19
2022-10-10T12:21:30.549Z,20.62
2022-10-10T12:24:04.421Z,20.82
2022-10-10T12:26:53.058Z,20.79
2022-10-10T12:29:56.523Z,21.03
2022-10-10T12:32:23.187Z,21.61
2022-10-10T12:34:49.926Z,21.63
2022-10-10T12:37:34.865Z,21.17
2022-10-10T12:40:08.048Z,21.03
2022-10-10T12:42:57.888Z,21.54
2022-10-10T12:45:30.650Z,21.86
2022-10-10T12:48:07.152Z,20.83
2022-10-10T12:50:44.052Z,20.56
2022-10-10T12:53:13.726Z,20.90
2022-10-10T12:56:01.073Z,21.19
2022-10-10T12:58:30.295Z,21.57
2022-10-10T13:00:59.637Z,21.22
2022-10-10T13:03:34.505Z,21.57
2022-10-10T13:06:20.435Z,20.77
2022-10-10T13:08:47.644Z,20.94
2022-10-10T13:11:15.501Z,21.37
2022-10-10T13:13:52.894Z,21.39
2022-10-10T13:16:22.604Z,21.12
2022-10-10T13:18:52.291Z,21.28
2022-10-10T13:21:23.054Z,21.02
2022-10-10T13:26:40.470Z,21.30
2022-10-10T13:29:30.284Z,20.98
2022-10-10T13:32:19.253Z,21.25
2022-10-10T13:34:53.794Z,21.14
2022-10-10T13:37:21.091Z,20.69
2022-10-10T13:39:49.879Z,20.60
2022-10-10T13:42:37.697Z,20.92
2022-10-10T13:45:37.734Z,20.93
2022-10-10T13:48:04.397Z,21.17
2022-10-10T13:50:34.716Z,21.28
2022-10-10T13:53:29.285Z,21.11
2022-10-10T13:56:18.316Z,21.06
2022-10-10T13:58:52.584Z,20.73
2022-10-10T14:01:28.364Z,19.96
2022-10-10T14:04:02.302Z,20.08
2022-10-10T14:06:29.635Z,20.27
2022-10-10T14:09:04.530Z,20.00
2022-10-10T14:11:32.495Z,19.80
2022-10-10T14:14:14.167Z,19.98
2022-10-10T14:16:40.903Z,19.70
2022-10-10T14:19:27.896Z,19.88
2022-10-10T14:21:54.699Z,19.97
2022-10-10T14:24:21.514Z,19.97
2022-10-10T14:26:48.276Z,19.99
2022-10-10T14:29:16.904Z,20.15
2022-10-10T14:31:44.775Z,20.05
2022-10-10T14:34:12.854Z,19.88
2022-10-10T14:36:46.613Z,20.00
2022-10-10T14:39:22.207Z,19.97
2022-10-10T14:41:48.984Z,20.05
2022-10-10T14:44:15.670Z,19.66
2022-10-10T14:46:42.584Z,19.73
2022-10-10T14:49:19.476Z,19.82
2022-10-10T14:51:49.397Z,19.90
2022-10-10T14:54:16.183Z,19.79
2022-10-10T14:57:07.150Z,19.77
2022-10-10T14:59:49.798Z,19.54
2022-10-10T15:02:20.114Z,19.30
2022-10-10T15:04:46.876Z,19.45
2022-10-10T15:07:15.019Z,19.20
2022-10-10T15:10:11.141Z,19.13
2022-10-10T15:12:34.878Z,19.23
2022-10-10T15:15:01.771Z,19.13
2022-10-10T15:17:30.520Z,19.20
2022-10-10T15:19:57.292Z,19.10
2022-10-10T15:22:24.004Z,19.03
2022-10-10T15:24:50.715Z,18.99
2022-10-10T15:27:17.468Z,18.72
2022-10-10T15:29:44.148Z,18.73
2022-10-10T15:32:10.957Z,18.54
2022-10-10T15:34:38.012Z,18.48
2022-10-10T15:37:04.795Z,18.26
2022-10-10T15:39:31.619Z,18.31
2022-10-10T15:42:01.335Z,18.28
2022-10-10T15:44:33.833Z,17.97
2022-10-10T15:47:00.654Z,17.96
2022-10-10T15:49:27.469Z,17.80
2022-10-10T15:51:54.245Z,17.58
2022-10-10T15:54:20.945Z,17.50
2022-10-10T15:56:47.880Z,17.36
2022-10-10T15:59:14.738Z,17.25
2022-10-10T16:01:41.473Z,17.02
2022-10-10T16:04:08.215Z,17.13
2022-10-10T16:06:34.896Z,17.16
2022-10-10T16:09:26.879Z,17.06
2022-10-10T16:11:49.073Z,16.95
2022-10-10T16:14:15.867Z,16.95
2022-10-10T16:16:42.553Z,16.72
2022-10-10T16:19:09.300Z,16.65
2022-10-10T16:21:36.033Z,16.76
2022-10-10T16:24:09.157Z,16.46
2022-10-10T16:26:37.652Z,16.58
2022-10-10T16:29:06.295Z,16.34
2022-10-10T16:31:35.303Z,16.24
2022-10-10T16:34:02.114Z,16.24
2022-10-10T16:36:31.493Z,16.20
2022-10-10T16:38:58.907Z,16.25
2022-10-10T16:41:47.122Z,16.19
2022-10-10T16:44:14.793Z,16.09
2022-10-10T16:46:41.525Z,15.97
2022-10-10T16:49:08.372Z,16.00
2022-10-10T16:51:35.073Z,15.81
2022-10-10T16:54:02.471Z,15.70
2022-10-10T16:56:30.235Z,15.72
2022-10-10T16:58:59.455Z,15.59
2022-10-10T17:01:26.853Z,15.61
2022-10-10T17:03:53.953Z,15.56
2022-10-10T17:06:23.152Z,15.45
2022-10-10T17:08:51.676Z,15.37
2022-10-10T17:11:20.720Z,15.16
2022-10-10T17:13:47.924Z,15.05
2022-10-10T17:19:06.975Z,14.99
2022-10-10T17:21:33.725Z,14.99
2022-10-10T17:24:00.423Z,14.89
2022-10-10T17:26:28.103Z,14.87
2022-10-10T17:28:56.022Z,14.75
2022-10-10T17:31:23.154Z,14.68
2022-10-10T17:33:53.826Z,14.53
2022-10-10T17:36:23.679Z,14.43
2022-10-10T17:38:51.123Z,14.37
2022-10-10T17:41:18.931Z,14.44
2022-10-10T17:43:46.392Z,14.36
2022-10-10T17:46:34.407Z,14.40
2022-10-10T17:49:06.535Z,14.34
2022-10-10T17:51:34.348Z,14.23
2022-10-10T17:54:01.842Z,14.22
2022-10-10T17:56:28.926Z,14.17
2022-10-10T17:58:55.953Z,14.11
2022-10-10T18:01:23.125Z,14.04
2022-10-10T18:03:49.964Z,14.08
2022-10-10T18:06:18.414Z,14.08
2022-10-10T18:08:47.254Z,13.99
2022-10-10T18:11:19.753Z,13.90
2022-10-10T18:13:46.966Z,13.79
2022-10-10T18:16:16.126Z,13.92
2022-10-10T18:18:49.612Z,13.83
2022-10-10T18:21:18.212Z,13.86
2022-10-10T18:23:44.914Z,13.93
2022-10-10T18:26:15.312Z,14.09
2022-10-10T18:28:44.879Z,13.84
2022-10-10T18:31:39.170Z,13.58
2022-10-10T18:34:07.495Z,13.60
2022-10-10T18:36:36.467Z,13.60
2022-10-10T18:39:06.971Z,13.60
2022-10-10T18:41:34.718Z,13.40
2022-10-10T18:44:07.175Z,13.51
2022-10-10T18:46:35.012Z,13.56
2022-10-10T18:49:02.690Z,13.49
2022-10-10T18:51:29.831Z,13.51
2022-10-10T18:54:01.077Z,13.44
2022-10-10T18:56:28.649Z,13.34
2022-10-10T18:58:57.952Z,13.29
2022-10-10T19:01:28.321Z,13.18
2022-10-10T19:03:56.144Z,13.23
2022-10-10T19:06:24.719Z,13.27
2022-10-10T19:08:54.144Z,13.25
2022-10-10T19:11:23.505Z,13.27
2022-10-10T19:13:50.785Z,13.28
2022-10-10T19:16:18.163Z,13.28
2022-10-10T19:18:45.305Z,13.23
2022-10-10T19:21:12.372Z,13.21
2022-10-10T19:23:39.426Z,13.24
2022-10-10T19:26:09.105Z,13.25
2022-10-10T19:28:37.033Z,13.15
2022-10-10T19:31:06.823Z,13.18
2022-10-10T19:33:33.970Z,13.09
2022-10-10T19:36:02.571Z,13.11
2022-10-10T19:38:30.267Z,12.97
2022-10-10T19:40:56.915Z,12.80
2022-10-10T19:43:23.725Z,12.75
2022-10-10T19:45:53.617Z,12.80
2022-10-10T19:48:21.176Z,12.84
2022-10-10T19:50:48.718Z,12.87
2022-10-10T19:53:17.814Z,12.85
2022-10-10T19:55:47.465Z,12.86
2022-10-10T19:58:14.266Z,12.89
2022-10-10T20:00:41.019Z,12.84
2022-10-10T20:03:07.842Z,12.79
2022-10-10T20:05:34.622Z,12.79
2022-10-10T20:08:01.214Z,12.72
2022-10-10T20:10:27.928Z,12.59
2022-10-10T20:12:55.287Z,12.67
2022-10-10T20:15:21.915Z,12.71
2022-10-10T20:17:48.585Z,12.71
2022-10-10T20:20:15.303Z,12.68
2022-10-10T20:22:44.560Z,12.64
2022-10-10T20:25:11.258Z,12.74
2022-10-10T20:27:38.003Z,12.54
2022-10-10T20:30:05.848Z,12.54
2022-10-10T20:32:32.518Z,12.51
2022-10-10T20:34:59.294Z,12.55
2022-10-10T20:37:26.006Z,12.56
2022-10-10T20:39:52.764Z,12.57
2022-10-10T20:42:19.430Z,12.49
2022-10-10T20:44:46.097Z,12.49
2022-10-10T20:47:12.716Z,12.37
2022-10-10T20:49:39.428Z,12.41
2022-10-10T20:52:05.990Z,12.40
2022-10-10T20:54:32.656Z,12.38
2022-10-10T20:56:59.309Z,12.26
2022-10-10T20:59:26.018Z,12.22
2022-10-10T21:01:52.620Z,12.30
2022-10-10T21:04:19.415Z,12.32
2022-10-10T21:06:46.013Z,12.26
2022-10-10T21:09:14.552Z,12.27
2022-10-10T21:11:41.769Z,12.16
2022-10-10T21:14:08.499Z,12.17
2022-10-10T21:16:37.969Z,12.20
2022-10-10T21:19:06.211Z,12.16
2022-10-10T21:21:35.077Z,12.14
2022-10-10T21:24:03.753Z,12.19
2022-10-10T21:26:31.134Z,12.16
2022-10-10T21:28:58.333Z,12.07
2022-10-10T21:31:29.790Z,12.10
2022-10-10T21:33:56.883Z,12.16
2022-10-10T21:36:25.298Z,12.21
2022-10-10T21:38:53.957Z,12.26
2022-10-10T21:41:20.983Z,12.32
2022-10-10T21:43:53.071Z,12.34
2022-10-10T21:46:25.109Z,12.30
2022-10-10T21:48:52.569Z,12.17
2022-10-10T21:51:20.359Z,12.22
2022-10-10T21:53:47.584Z,12.31
2022-10-10T21:56:14.537Z,12.12
2022-10-10T21:58:42.841Z,12.25
2022-10-10T22:01:10.303Z,12.32
2022-10-10T22:03:37.346Z,12.27
2022-10-10T22:06:06.742Z,12.34
2022-10-10T22:08:34.001Z,12.36
2022-10-10T22:11:01.692Z,12.40
2022-10-10T22:13:28.759Z,12.41
2022-10-10T22:15:55.829Z,12.37
2022-10-10T22:18:22.573Z,12.34
2022-10-10T22:20:49.425Z,12.35
2022-10-10T22:23:17.013Z,12.40
2022-10-10T22:25:47.984Z,12.40
2022-10-10T22:28:15.748Z,12.27
2022-10-10T22:30:42.568Z,12.31
2022-10-10T22:33:09.560Z,12.41
2022-10-10T22:35:36.554Z,12.29
2022-10-10T22:38:03.907Z,12.28
2022-10-10T22:40:30.692Z,12.21
2022-10-10T22:42:57.520Z,12.19
2022-10-10T22:45:24.335Z,12.20
2022-10-10T22:47:51.066Z,12.31
2022-10-10T22:50:18.498Z,12.37
2022-10-10T22:52:45.193Z,12.39
2022-10-10T22:55:15.843Z,12.38
2022-10-10T22:57:44.968Z,12.41
2022-10-10T23:00:12.412Z,12.40
2022-10-10T23:02:39.028Z,12.44
2022-10-10T23:05:06.447Z,12.47
2022-10-10T23:07:33.236Z,12.51
2022-10-10T23:09:59.843Z,12.46
2022-10-10T23:12:26.627Z,12.48
2022-10-10T23:14:53.324Z,12.46
2022-10-10T23:17:20.018Z,12.43
2022-10-10T23:19:46.682Z,12.48
2022-10-10T23:22:14.016Z,12.48
2022-10-10T23:24:41.344Z,12.43
2022-10-10T23:27:08.137Z,12.38
2022-10-10T23:29:34.908Z,12.34
2022-10-10T23:32:01.612Z,12.26
2022-10-10T23:34:28.293Z,12.24
2022-10-10T23:36:54.957Z,12.25
2022-10-10T23:39:21.645Z,12.30
2022-10-10T23:41:48.297Z,12.34
2022-10-10T23:44:14.986Z,12.30
2022-10-10T23:46:41.676Z,12.38
2022-10-10T23:49:09.757Z,12.37
2022-10-10T23:51:36.548Z,12.36
2022-10-10T23:54:03.289Z,12.37
2022-10-10T23:56:30.065Z,12.41
2022-10-10T23:58:56.765Z,12.39
